Hartford, Michigan
Current Conditions -  °F | °C
As of 1:55 AM on Sunday 26 Oct 2014 (Local Time) from KLWA Reporting Station
Clear Clear  
Wind Chill: 57°   Ceiling: Unl
Heat Index: 57°   Visibility: 10mi
Dew Point: 38°   Wind: 12mph
Humidity: 50%   Direction: 330°NNW
Pressure: 29.93"   Gusts: 21mph
Location:  42.21°N, 86.17°W
Report Text: KLWA 260555Z AUTO 33010G18KT 10SM CLR 14/04 A2993 RMK AO2 T01370035 10152 20137 401820129
Loading
Personal Weather Stations






























Interactive Weather Map New forecast layout! Learn more

10-Day Weather Forecast

Advertisements
Track Severe Weather on mobile